Cunningham, Kansas
Current Conditions -  °F | °C
As of 8:15 PM on Friday 24 Oct 2014 (Local Time) from KPTT Reporting Station
Clear Clear  
Wind Chill: 68°   Ceiling: Unl
Heat Index: 68°   Visibility: 10mi
Dew Point: 59°   Wind: 6mph
Humidity: 73%   Direction: 180°S
Pressure: 30.04"   Gusts: NA
Location:  37.64°N, 98.43°W
Report Text: KPTT 250115Z AUTO 18005KT 10SM CLR 20/15 A3004 RMK AO2
Loading
Personal Weather Stations






























Interactive Weather Map
Tropical Storm Tracking
New forecast layout! Learn more

10-Day Weather Forecast

Advertisements
Track Severe Weather on mobile